createdAt,value
2022-08-20T00:02:15.685Z,19.60
2022-08-20T00:04:44.451Z,19.60
2022-08-20T00:07:12.910Z,19.60
2022-08-20T00:09:41.744Z,19.60
2022-08-20T00:12:10.330Z,19.60
2022-08-20T00:14:40.824Z,19.60
2022-08-20T00:17:09.141Z,19.60
2022-08-20T00:19:38.311Z,19.60
2022-08-20T00:22:06.810Z,19.60
2022-08-20T00:24:35.190Z,19.60
2022-08-20T00:27:03.951Z,19.60
2022-08-20T00:29:32.310Z,19.60
2022-08-20T00:32:02.220Z,19.60
2022-08-20T00:34:30.840Z,19.60
2022-08-20T00:36:59.100Z,19.50
2022-08-20T00:39:27.451Z,19.50
2022-08-20T00:41:55.860Z,19.50
2022-08-20T00:44:24.331Z,19.50
2022-08-20T00:46:53.490Z,19.50
2022-08-20T00:49:26.070Z,19.50
2022-08-20T00:51:55.951Z,19.50
2022-08-20T00:54:26.751Z,19.40
2022-08-20T00:56:58.130Z,19.50
2022-08-20T00:59:28.317Z,19.60
2022-08-20T01:01:57.792Z,19.60
2022-08-20T01:04:28.160Z,19.60
2022-08-20T01:06:56.971Z,19.60
2022-08-20T01:09:49.613Z,19.50
2022-08-20T01:12:14.371Z,19.50
2022-08-20T01:14:46.661Z,19.50
2022-08-20T01:17:17.886Z,19.50
2022-08-20T01:19:49.414Z,19.50
2022-08-20T01:22:36.180Z,19.50
2022-08-20T01:25:09.180Z,19.50
2022-08-20T01:27:42.470Z,19.50
2022-08-20T01:30:12.407Z,19.50
2022-08-20T01:32:40.740Z,19.50
2022-08-20T01:35:10.761Z,19.50
2022-08-20T01:37:39.050Z,19.50
2022-08-20T01:40:09.459Z,19.50
2022-08-20T01:42:57.142Z,19.40
2022-08-20T01:45:31.078Z,19.50
2022-08-20T01:48:00.034Z,19.40
2022-08-20T01:50:32.455Z,19.40
2022-08-20T01:53:05.180Z,19.50
2022-08-20T01:55:33.970Z,19.50
2022-08-20T01:58:04.061Z,19.50
2022-08-20T02:00:35.050Z,19.50
2022-08-20T02:03:03.671Z,19.50
2022-08-20T02:05:32.690Z,19.50
2022-08-20T02:08:01.331Z,19.50
2022-08-20T02:10:31.747Z,19.50
2022-08-20T02:13:00.242Z,19.60
2022-08-20T02:15:30.740Z,19.50
2022-08-20T02:18:05.050Z,19.50
2022-08-20T02:20:36.823Z,19.50
2022-08-20T02:23:05.581Z,19.50
2022-08-20T02:25:35.321Z,19.50
2022-08-20T02:28:05.240Z,19.60
2022-08-20T02:30:35.873Z,19.50
2022-08-20T02:33:05.080Z,19.60
2022-08-20T02:35:33.795Z,19.60
2022-08-20T02:38:02.781Z,19.60
2022-08-20T02:40:31.720Z,19.60
2022-08-20T02:43:00.291Z,19.70
2022-08-20T02:45:29.180Z,19.60
2022-08-20T02:47:59.482Z,19.60
2022-08-20T02:50:28.099Z,19.50
2022-08-20T02:52:56.470Z,19.60
2022-08-20T02:55:27.774Z,19.50
2022-08-20T02:57:57.942Z,19.50
2022-08-20T03:00:28.270Z,19.50
2022-08-20T03:02:56.651Z,19.50
2022-08-20T03:05:26.450Z,19.50
2022-08-20T03:07:56.684Z,19.50
2022-08-20T03:10:26.050Z,19.40
2022-08-20T03:12:55.450Z,19.40
2022-08-20T03:15:24.110Z,19.40
2022-08-20T03:17:52.588Z,19.40
2022-08-20T03:20:22.417Z,19.40
2022-08-20T03:22:54.920Z,19.40
2022-08-20T03:25:24.260Z,19.40
2022-08-20T03:27:54.231Z,19.30
2022-08-20T03:30:24.531Z,19.30
2022-08-20T03:32:52.930Z,19.40
2022-08-20T03:35:22.740Z,19.40
2022-08-20T03:37:51.976Z,19.40
2022-08-20T03:40:23.200Z,19.50
2022-08-20T03:42:52.730Z,19.50
2022-08-20T03:45:21.923Z,19.50
2022-08-20T03:47:51.889Z,19.40
2022-08-20T03:50:23.009Z,19.50
2022-08-20T03:52:52.461Z,19.50
2022-08-20T03:55:22.790Z,19.40
2022-08-20T03:57:53.266Z,19.40
2022-08-20T04:00:22.720Z,19.30
2022-08-20T04:02:50.990Z,19.40
2022-08-20T04:05:19.381Z,19.40
2022-08-20T04:07:47.731Z,19.30
2022-08-20T04:10:16.010Z,19.30
2022-08-20T04:12:51.305Z,19.30
2022-08-20T04:15:22.372Z,19.30
2022-08-20T04:17:51.608Z,19.40
2022-08-20T04:20:23.403Z,19.40
2022-08-20T04:22:58.460Z,19.30
2022-08-20T04:25:29.745Z,19.40
2022-08-20T04:28:02.341Z,19.40
2022-08-20T04:30:31.032Z,19.40
2022-08-20T04:32:59.692Z,19.40
2022-08-20T04:35:28.131Z,19.40
2022-08-20T04:37:59.991Z,19.30
2022-08-20T04:40:45.690Z,19.30
2022-08-20T04:43:15.743Z,19.30
2022-08-20T04:45:47.320Z,19.40
2022-08-20T04:48:15.701Z,19.40
2022-08-20T04:50:46.946Z,19.40
2022-08-20T04:53:16.890Z,19.40
2022-08-20T04:55:46.261Z,19.40
2022-08-20T04:58:18.343Z,19.40
2022-08-20T05:00:50.221Z,19.50
2022-08-20T05:03:19.140Z,19.40
2022-08-20T05:05:47.731Z,19.40
2022-08-20T05:08:19.617Z,19.50
2022-08-20T05:10:48.826Z,19.50
2022-08-20T05:13:18.893Z,19.40
2022-08-20T05:15:48.666Z,19.40
2022-08-20T05:18:18.736Z,19.50
2022-08-20T05:20:47.171Z,19.40
2022-08-20T05:23:16.671Z,19.50
2022-08-20T05:25:45.571Z,19.50
2022-08-20T05:28:14.961Z,19.40
2022-08-20T05:30:45.691Z,19.40
2022-08-20T05:33:19.914Z,19.50
2022-08-20T05:35:48.852Z,19.50
2022-08-20T05:38:19.433Z,19.50
2022-08-20T05:40:49.830Z,19.40
2022-08-20T05:43:18.583Z,19.50
2022-08-20T05:45:56.510Z,19.50
2022-08-20T05:48:26.351Z,19.50
2022-08-20T05:50:56.021Z,19.40
2022-08-20T05:53:25.001Z,19.40
2022-08-20T05:55:53.592Z,19.40
2022-08-20T05:58:23.682Z,19.30
2022-08-20T06:00:54.576Z,19.40
2022-08-20T06:03:39.854Z,19.40
2022-08-20T06:06:17.918Z,19.40
2022-08-20T06:08:57.032Z,19.40
2022-08-20T06:11:25.301Z,19.40
2022-08-20T06:13:53.611Z,19.40
2022-08-20T06:16:23.482Z,19.30
2022-08-20T06:18:58.241Z,19.50
2022-08-20T06:21:26.813Z,19.40
2022-08-20T06:23:59.034Z,19.40
2022-08-20T06:26:29.764Z,19.40
2022-08-20T06:28:59.304Z,19.40
2022-08-20T06:31:29.573Z,19.40
2022-08-20T06:33:57.891Z,19.40
2022-08-20T06:36:26.301Z,19.50
2022-08-20T06:38:58.630Z,19.50
2022-08-20T06:41:36.125Z,19.50
2022-08-20T06:44:05.806Z,19.50
2022-08-20T06:46:36.291Z,19.50
2022-08-20T06:49:04.941Z,19.60
2022-08-20T06:51:33.451Z,19.60
2022-08-20T06:54:01.952Z,19.70
2022-08-20T06:56:30.261Z,19.70
2022-08-20T06:58:58.490Z,19.60
2022-08-20T07:01:26.879Z,19.60
2022-08-20T07:03:59.771Z,19.70
2022-08-20T07:06:28.412Z,19.70
2022-08-20T07:08:56.701Z,19.70
2022-08-20T07:11:28.206Z,19.70
2022-08-20T07:13:58.469Z,19.80
2022-08-20T07:16:27.355Z,19.80
2022-08-20T07:18:58.421Z,19.80
2022-08-20T07:21:27.022Z,19.70
2022-08-20T07:23:55.471Z,19.70
2022-08-20T07:26:23.852Z,19.60
2022-08-20T07:28:52.180Z,19.70
2022-08-20T07:31:39.121Z,19.60
2022-08-20T07:34:12.452Z,19.70
2022-08-20T07:36:40.983Z,19.70
2022-08-20T07:39:09.455Z,19.70
2022-08-20T07:41:37.840Z,19.70
2022-08-20T07:44:06.223Z,19.70
2022-08-20T07:46:34.552Z,19.70
2022-08-20T07:49:05.542Z,19.70
2022-08-20T07:51:37.551Z,19.70
2022-08-20T07:54:06.257Z,19.70
2022-08-20T07:56:34.801Z,19.80
2022-08-20T07:59:04.861Z,19.70
2022-08-20T08:01:33.482Z,19.70
2022-08-20T08:04:01.960Z,19.60
2022-08-20T08:06:31.790Z,19.70
2022-08-20T08:09:03.530Z,19.80
2022-08-20T08:11:33.341Z,19.70
2022-08-20T08:14:01.888Z,19.70
2022-08-20T08:16:31.282Z,19.70
2022-08-20T08:19:01.451Z,19.70
2022-08-20T08:21:30.551Z,19.70
2022-08-20T08:23:58.956Z,19.70
2022-08-20T08:26:29.200Z,19.70
2022-08-20T08:28:58.593Z,19.80
2022-08-20T08:31:27.093Z,19.70
2022-08-20T08:33:55.426Z,19.80
2022-08-20T08:36:25.703Z,19.80
2022-08-20T08:38:54.742Z,19.80
2022-08-20T08:41:26.705Z,19.90
2022-08-20T08:44:00.411Z,19.90
2022-08-20T08:46:32.504Z,19.90
2022-08-20T08:49:02.859Z,19.90
2022-08-20T08:51:36.781Z,19.90
2022-08-20T08:54:07.068Z,20.00
2022-08-20T08:56:36.101Z,20.00
2022-08-20T08:59:08.772Z,20.00
2022-08-20T09:01:55.233Z,20.00
2022-08-20T09:04:25.931Z,20.10
2022-08-20T09:06:54.791Z,20.00
2022-08-20T09:09:26.342Z,20.10
2022-08-20T09:11:57.261Z,20.20
2022-08-20T09:14:26.980Z,20.10
2022-08-20T09:16:55.291Z,20.10
2022-08-20T09:19:23.611Z,20.20
2022-08-20T09:21:52.106Z,20.30
2022-08-20T09:24:20.368Z,20.30
2022-08-20T09:26:48.726Z,20.30
2022-08-20T09:29:17.088Z,20.30
2022-08-20T09:31:46.998Z,20.30
2022-08-20T09:34:15.311Z,20.30
2022-08-20T09:36:43.597Z,20.30
2022-08-20T09:39:12.747Z,20.30
2022-08-20T09:41:41.618Z,20.40
2022-08-20T09:44:09.888Z,20.40
2022-08-20T09:46:38.408Z,20.40
2022-08-20T09:49:08.946Z,20.40
2022-08-20T09:51:39.103Z,20.50
2022-08-20T09:54:07.647Z,20.50
2022-08-20T09:56:36.658Z,20.50
2022-08-20T09:59:05.028Z,20.60
2022-08-20T10:01:33.574Z,20.70
2022-08-20T10:04:01.937Z,20.70
2022-08-20T10:06:37.183Z,20.70
2022-08-20T10:09:06.097Z,20.70
2022-08-20T10:11:34.468Z,20.70
2022-08-20T10:14:02.807Z,20.70
2022-08-20T10:16:31.048Z,20.70
2022-08-20T10:18:59.529Z,20.70
2022-08-20T10:21:27.837Z,20.60
2022-08-20T10:23:57.876Z,20.60
2022-08-20T10:26:26.248Z,20.80
2022-08-20T10:28:54.578Z,20.70
2022-08-20T10:31:23.111Z,20.60
2022-08-20T10:33:51.377Z,20.60
2022-08-20T10:36:19.820Z,20.60
2022-08-20T10:38:49.223Z,20.60
2022-08-20T10:41:20.277Z,20.50
2022-08-20T10:43:48.686Z,20.60
2022-08-20T10:46:16.966Z,20.70
2022-08-20T10:48:45.686Z,20.70
2022-08-20T10:51:13.978Z,20.70
2022-08-20T10:53:42.307Z,20.70
2022-08-20T10:56:15.011Z,20.80
2022-08-20T10:58:45.518Z,20.80
2022-08-20T11:01:13.913Z,20.80
2022-08-20T11:04:00.028Z,20.80
2022-08-20T11:06:28.377Z,20.80
2022-08-20T11:08:56.785Z,20.90
2022-08-20T11:11:25.459Z,20.90
2022-08-20T11:13:55.226Z,20.90
2022-08-20T11:16:24.892Z,20.90
2022-08-20T11:18:53.287Z,21.00
2022-08-20T11:21:21.618Z,21.00
2022-08-20T11:23:49.899Z,21.00
2022-08-20T11:26:22.288Z,21.10
2022-08-20T11:28:50.636Z,21.30
2022-08-20T11:31:20.393Z,21.30
2022-08-20T11:33:48.684Z,21.30
2022-08-20T11:36:16.999Z,21.30
2022-08-20T11:38:45.328Z,21.30
2022-08-20T11:41:13.618Z,21.30
2022-08-20T11:43:47.789Z,21.30
2022-08-20T11:46:29.458Z,21.40
2022-08-20T11:48:57.707Z,21.50
2022-08-20T11:51:26.066Z,21.40
2022-08-20T11:53:54.426Z,21.40
2022-08-20T11:56:23.476Z,21.40
2022-08-20T11:58:54.631Z,21.50
2022-08-20T12:01:23.007Z,21.50
2022-08-20T12:03:52.829Z,21.60
2022-08-20T12:06:21.176Z,21.80
2022-08-20T12:08:49.547Z,21.70
2022-08-20T12:11:17.817Z,21.60
2022-08-20T12:13:48.785Z,21.70
2022-08-20T12:16:17.887Z,21.80
2022-08-20T12:18:46.407Z,21.70
2022-08-20T12:21:16.129Z,21.80
2022-08-20T12:23:44.418Z,21.80
2022-08-20T12:26:12.738Z,21.80
2022-08-20T12:28:41.041Z,22.00
2022-08-20T12:31:09.371Z,22.00
2022-08-20T12:33:37.631Z,22.10
2022-08-20T12:36:06.237Z,21.90
2022-08-20T12:38:36.000Z,22.00
2022-08-20T12:41:04.340Z,22.00
2022-08-20T12:43:32.730Z,22.00
2022-08-20T12:46:01.098Z,22.00
2022-08-20T12:48:29.487Z,22.00
2022-08-20T12:50:58.067Z,22.00
2022-08-20T12:53:26.438Z,21.90
2022-08-20T12:55:56.209Z,22.10
2022-08-20T12:58:24.914Z,22.10
2022-08-20T13:00:53.269Z,22.10
2022-08-20T13:03:22.727Z,22.10
2022-08-20T13:05:51.356Z,22.20
2022-08-20T13:08:19.844Z,22.30
2022-08-20T13:10:49.445Z,22.30
2022-08-20T13:13:21.194Z,22.40
2022-08-20T13:15:50.309Z,22.40
2022-08-20T13:18:18.733Z,22.40
2022-08-20T13:20:47.117Z,22.40
2022-08-20T13:23:15.450Z,22.50
2022-08-20T13:25:43.877Z,22.50
2022-08-20T13:28:12.188Z,22.50
2022-08-20T13:30:42.278Z,22.50
2022-08-20T13:33:10.658Z,22.50
2022-08-20T13:35:39.021Z,22.40
2022-08-20T13:38:07.417Z,22.40
2022-08-20T13:40:35.917Z,22.50
2022-08-20T13:43:07.015Z,22.30
2022-08-20T13:45:36.359Z,22.10
2022-08-20T13:48:06.950Z,22.10
2022-08-20T13:50:38.887Z,22.10
2022-08-20T13:53:07.372Z,22.10
2022-08-20T13:55:38.631Z,22.20
2022-08-20T13:58:08.547Z,22.10
2022-08-20T14:00:37.417Z,22.20
2022-08-20T14:03:08.299Z,22.10
2022-08-20T14:05:37.108Z,22.10
2022-08-20T14:08:06.652Z,22.20
2022-08-20T14:10:35.216Z,22.10
2022-08-20T14:13:05.897Z,22.10
2022-08-20T14:15:34.287Z,22.20
2022-08-20T14:18:02.739Z,22.10
2022-08-20T14:20:33.789Z,22.10
2022-08-20T14:23:02.628Z,22.00
2022-08-20T14:25:31.787Z,22.10
2022-08-20T14:28:00.228Z,22.10
2022-08-20T14:30:29.595Z,21.90
2022-08-20T14:32:58.109Z,21.90
2022-08-20T14:35:26.572Z,22.10
2022-08-20T14:37:56.838Z,22.10
2022-08-20T14:40:26.051Z,22.10
2022-08-20T14:42:54.866Z,22.20
2022-08-20T14:45:24.061Z,22.10
2022-08-20T14:47:54.167Z,22.20
2022-08-20T14:50:23.748Z,22.20
2022-08-20T14:52:52.138Z,22.20
2022-08-20T14:55:22.788Z,22.20
2022-08-20T14:57:51.150Z,22.10
2022-08-20T15:00:20.410Z,22.00
2022-08-20T15:02:49.081Z,22.00
2022-08-20T15:05:18.044Z,22.10
2022-08-20T15:07:48.208Z,22.10
2022-08-20T15:10:18.538Z,22.00
2022-08-20T15:12:48.385Z,22.00
2022-08-20T15:15:17.489Z,22.00
2022-08-20T15:17:46.636Z,22.00
2022-08-20T15:20:20.854Z,22.20
2022-08-20T15:22:49.835Z,22.10
2022-08-20T15:25:20.328Z,22.00
2022-08-20T15:27:51.086Z,21.90
2022-08-20T15:30:20.217Z,21.90
2022-08-20T15:32:54.126Z,21.90
2022-08-20T15:35:23.145Z,21.90
2022-08-20T15:37:54.708Z,21.80
2022-08-20T15:40:28.222Z,21.80
2022-08-20T15:42:58.864Z,21.80
2022-08-20T15:45:27.406Z,21.80
2022-08-20T15:47:57.695Z,21.70
2022-08-20T15:50:39.785Z,21.70
2022-08-20T15:53:11.944Z,21.80
2022-08-20T15:55:42.916Z,21.70
2022-08-20T15:58:16.125Z,21.70
2022-08-20T16:00:48.336Z,21.60
2022-08-20T16:03:25.485Z,21.60
2022-08-20T16:05:57.486Z,21.60
2022-08-20T16:08:49.556Z,21.70
2022-08-20T16:11:21.754Z,21.70
2022-08-20T16:13:52.976Z,21.60
2022-08-20T16:16:23.859Z,21.60
2022-08-20T16:18:53.294Z,21.70
2022-08-20T16:21:27.954Z,21.60
2022-08-20T16:23:56.756Z,21.60
2022-08-20T16:26:36.074Z,21.40
2022-08-20T16:29:11.233Z,21.10
2022-08-20T16:31:43.138Z,20.90
2022-08-20T16:34:33.846Z,20.80
2022-08-20T16:37:06.257Z,20.60
2022-08-20T16:39:38.542Z,20.60
2022-08-20T16:42:09.119Z,20.60
2022-08-20T16:44:40.127Z,20.40
2022-08-20T16:47:14.428Z,20.40
2022-08-20T16:49:45.296Z,20.50
2022-08-20T16:52:13.598Z,20.50
2022-08-20T16:54:44.004Z,20.40
2022-08-20T16:57:17.050Z,20.40
2022-08-20T17:00:12.529Z,20.40
2022-08-20T17:02:50.701Z,20.40
2022-08-20T17:05:19.374Z,20.40
2022-08-20T17:07:51.328Z,20.30
2022-08-20T17:10:22.325Z,20.30
2022-08-20T17:12:55.156Z,20.40
2022-08-20T17:15:27.008Z,20.30
2022-08-20T17:17:56.143Z,20.30
2022-08-20T17:20:25.806Z,20.30
2022-08-20T17:23:10.227Z,20.30
2022-08-20T17:25:38.985Z,20.20
2022-08-20T17:28:14.115Z,20.20
2022-08-20T17:30:43.904Z,20.20
2022-08-20T17:33:20.275Z,20.20
2022-08-20T17:35:52.244Z,20.20
2022-08-20T17:38:33.515Z,20.20
2022-08-20T17:41:02.635Z,20.30
2022-08-20T17:43:32.204Z,20.30
2022-08-20T17:46:03.644Z,20.30
2022-08-20T17:48:34.425Z,20.40
2022-08-20T17:51:06.606Z,20.60
2022-08-20T17:53:37.607Z,20.40
2022-08-20T17:56:14.285Z,20.40
2022-08-20T17:58:54.600Z,20.30
2022-08-20T18:01:26.230Z,20.30
2022-08-20T18:03:54.754Z,20.30
2022-08-20T18:06:30.668Z,20.30
2022-08-20T18:09:04.494Z,20.30
2022-08-20T18:11:35.514Z,20.30
2022-08-20T18:14:16.754Z,20.30
2022-08-20T18:16:51.314Z,20.20
2022-08-20T18:19:31.303Z,20.40
2022-08-20T18:22:12.813Z,20.30
2022-08-20T18:24:45.136Z,20.30
2022-08-20T18:27:15.443Z,20.30
2022-08-20T18:29:44.718Z,20.30
2022-08-20T18:32:26.264Z,20.30
2022-08-20T18:34:54.814Z,20.30
2022-08-20T18:37:41.546Z,20.30
2022-08-20T18:40:20.121Z,20.30
2022-08-20T18:42:48.784Z,20.30
2022-08-20T18:45:28.493Z,20.30
2022-08-20T18:47:58.673Z,20.20
2022-08-20T18:50:31.645Z,20.20
2022-08-20T18:53:12.265Z,20.20
2022-08-20T18:55:42.075Z,20.20
2022-08-20T18:58:11.529Z,20.20
2022-08-20T19:00:41.484Z,20.20
2022-08-20T19:03:20.295Z,20.20
2022-08-20T19:06:00.684Z,20.20
2022-08-20T19:08:35.285Z,20.20
2022-08-20T19:11:08.347Z,20.20
2022-08-20T19:13:46.825Z,20.20
2022-08-20T19:16:18.424Z,20.20
2022-08-20T19:18:51.904Z,20.20
2022-08-20T19:21:23.113Z,20.20
2022-08-20T19:23:53.735Z,20.20
2022-08-20T19:26:25.095Z,20.10
2022-08-20T19:28:55.475Z,20.10
2022-08-20T19:31:24.694Z,20.10
2022-08-20T19:34:18.064Z,20.10
2022-08-20T19:36:54.804Z,20.20
2022-08-20T19:39:25.507Z,20.20
2022-08-20T19:41:56.917Z,20.20
2022-08-20T19:44:26.755Z,20.20
2022-08-20T19:46:55.394Z,20.10
2022-08-20T19:49:28.925Z,20.10
2022-08-20T19:52:03.295Z,20.20
2022-08-20T19:54:31.708Z,20.10
2022-08-20T19:57:01.545Z,20.10
2022-08-20T19:59:29.888Z,20.00
2022-08-20T20:02:00.547Z,20.00
2022-08-20T20:04:31.204Z,20.00
2022-08-20T20:07:00.034Z,20.00
2022-08-20T20:09:29.382Z,20.00
2022-08-20T20:11:59.054Z,20.00
2022-08-20T20:14:28.995Z,20.00
2022-08-20T20:16:57.785Z,20.00
2022-08-20T20:19:27.433Z,20.00
2022-08-20T20:22:07.599Z,20.00
2022-08-20T20:24:50.336Z,20.00
2022-08-20T20:27:21.814Z,20.00
2022-08-20T20:29:51.934Z,20.00
2022-08-20T20:32:21.737Z,20.00
2022-08-20T20:34:55.268Z,20.00
2022-08-20T20:37:50.027Z,19.90
2022-08-20T20:40:25.866Z,19.90
2022-08-20T20:43:03.042Z,19.90
2022-08-20T20:45:33.495Z,19.90
2022-08-20T20:48:03.054Z,19.90
2022-08-20T20:50:34.674Z,19.90
2022-08-20T20:53:04.375Z,19.90
2022-08-20T20:55:33.585Z,19.90
2022-08-20T20:58:02.595Z,20.00
2022-08-20T21:00:32.214Z,20.00
2022-08-20T21:03:02.793Z,20.00
2022-08-20T21:05:33.575Z,20.00
2022-08-20T21:08:02.756Z,20.00
2022-08-20T21:10:34.995Z,19.90
2022-08-20T21:13:03.569Z,19.90
2022-08-20T21:15:33.207Z,19.90
2022-08-20T21:18:03.265Z,19.90
2022-08-20T21:20:31.656Z,19.90
2022-08-20T21:23:00.285Z,19.80
2022-08-20T21:25:29.475Z,19.80
2022-08-20T21:27:59.244Z,19.80
2022-08-20T21:30:27.655Z,19.80
2022-08-20T21:32:56.219Z,19.70
2022-08-20T21:35:24.653Z,19.70
2022-08-20T21:37:52.968Z,19.80
2022-08-20T21:40:21.910Z,19.80
2022-08-20T21:42:51.214Z,19.80
2022-08-20T21:45:21.346Z,19.80
2022-08-20T21:47:49.655Z,19.80
2022-08-20T21:50:19.190Z,19.80
2022-08-20T21:52:55.073Z,19.80
2022-08-20T21:55:27.594Z,19.80
2022-08-20T21:57:55.924Z,19.80
2022-08-20T22:00:38.956Z,19.80
2022-08-20T22:03:08.979Z,19.80
2022-08-20T22:05:41.645Z,19.80
2022-08-20T22:08:10.027Z,19.70
2022-08-20T22:10:38.415Z,19.70
2022-08-20T22:13:07.255Z,19.70
2022-08-20T22:15:35.575Z,19.70
2022-08-20T22:18:04.044Z,19.70
2022-08-20T22:20:33.778Z,19.70
2022-08-20T22:23:02.626Z,19.70
2022-08-20T22:25:31.184Z,19.70
2022-08-20T22:27:59.506Z,19.60
2022-08-20T22:30:28.536Z,19.70
2022-08-20T22:32:57.397Z,19.60
2022-08-20T22:35:25.674Z,19.60
2022-08-20T22:37:55.485Z,19.60
2022-08-20T22:40:23.914Z,19.50
2022-08-20T22:42:52.225Z,19.50
2022-08-20T22:45:20.493Z,19.60
2022-08-20T22:47:51.603Z,19.60
2022-08-20T22:50:21.074Z,19.60
2022-08-20T22:52:49.424Z,19.60
2022-08-20T22:55:19.253Z,19.60
2022-08-20T22:57:48.454Z,19.50
2022-08-20T23:00:18.503Z,19.50
2022-08-20T23:02:50.927Z,19.50
2022-08-20T23:05:21.414Z,19.50
2022-08-20T23:07:53.976Z,19.40
2022-08-20T23:10:24.314Z,19.40
2022-08-20T23:12:52.663Z,19.40
2022-08-20T23:15:21.244Z,19.40
2022-08-20T23:17:49.534Z,19.30
2022-08-20T23:20:18.954Z,19.30
2022-08-20T23:22:47.193Z,19.20
2022-08-20T23:25:16.476Z,19.20
2022-08-20T23:27:47.363Z,19.20
2022-08-20T23:30:17.025Z,19.20
2022-08-20T23:32:45.274Z,19.30
2022-08-20T23:35:13.753Z,19.30
2022-08-20T23:37:43.774Z,19.20
2022-08-20T23:40:12.394Z,19.20
2022-08-20T23:42:40.983Z,19.10
2022-08-20T23:45:11.663Z,19.10
2022-08-20T23:47:40.093Z,19.20
2022-08-20T23:50:09.853Z,19.20
2022-08-20T23:52:39.254Z,19.20
2022-08-20T23:55:08.254Z,19.20
2022-08-20T23:57:37.863Z,19.20
